createdAt,value
2023-01-17T00:00:30.013Z,4.53
2023-01-17T00:02:56.746Z,4.53
2023-01-17T00:08:47.189Z,4.60
2023-01-17T00:11:13.977Z,4.45
2023-01-17T00:13:40.968Z,4.65
2023-01-17T00:16:07.729Z,4.82
2023-01-17T00:18:34.580Z,4.43
2023-01-17T00:21:20.205Z,4.68
2023-01-17T00:24:05.577Z,5.18
2023-01-17T00:26:32.373Z,4.70
2023-01-17T00:28:59.052Z,4.68
2023-01-17T00:31:25.717Z,5.20
2023-01-17T00:33:52.375Z,4.80
2023-01-17T00:36:19.034Z,5.50
2023-01-17T00:38:45.733Z,5.15
2023-01-17T00:41:12.442Z,5.60
2023-01-17T00:43:58.147Z,5.55
2023-01-17T00:46:43.434Z,5.40
2023-01-17T00:49:28.924Z,5.30
2023-01-17T00:52:14.455Z,5.70
2023-01-17T00:54:59.957Z,5.43
2023-01-17T00:57:45.540Z,5.65
2023-01-17T01:00:31.159Z,4.90
2023-01-17T01:03:16.727Z,5.07
2023-01-17T01:06:02.163Z,5.93
2023-01-17T01:08:47.743Z,5.50
2023-01-17T01:11:33.025Z,5.10
2023-01-17T01:14:18.491Z,4.73
2023-01-17T01:17:04.009Z,4.88
2023-01-17T01:19:49.461Z,5.22
2023-01-17T01:22:34.874Z,5.60
2023-01-17T01:25:20.316Z,6.07
2023-01-17T01:28:05.758Z,5.15
2023-01-17T01:30:50.999Z,5.32
2023-01-17T01:33:20.464Z,7.22
2023-01-17T01:35:47.233Z,6.30
2023-01-17T01:38:13.972Z,6.20
2023-01-17T01:40:40.758Z,5.47
2023-01-17T01:43:07.495Z,5.68
2023-01-17T01:45:34.264Z,6.13
2023-01-17T01:48:00.977Z,5.93
2023-01-17T01:50:27.661Z,5.50
2023-01-17T01:52:54.337Z,6.13
2023-01-17T01:55:21.051Z,5.78
2023-01-17T01:57:47.996Z,5.85
2023-01-17T02:00:14.732Z,6.10
2023-01-17T02:02:41.472Z,5.97
2023-01-17T02:05:08.206Z,6.40
2023-01-17T02:07:34.925Z,6.22
2023-01-17T02:10:01.647Z,6.10
2023-01-17T02:12:28.354Z,6.85
2023-01-17T02:14:55.620Z,6.18
2023-01-17T02:17:22.382Z,5.22
2023-01-17T02:19:49.120Z,5.32
2023-01-17T02:22:15.849Z,4.32
2023-01-17T02:24:42.549Z,4.55
2023-01-17T02:27:09.211Z,4.22
2023-01-17T02:29:35.943Z,4.05
2023-01-17T02:32:03.306Z,3.88
2023-01-17T02:34:30.035Z,3.72
2023-01-17T02:36:57.815Z,4.47
2023-01-17T02:39:24.567Z,4.63
2023-01-17T02:41:51.266Z,3.90
2023-01-17T02:44:17.944Z,4.05
2023-01-17T02:46:44.621Z,3.95
2023-01-17T02:49:11.316Z,3.67
2023-01-17T02:51:39.029Z,3.72
2023-01-17T02:54:05.789Z,4.15
2023-01-17T02:56:32.741Z,3.95
2023-01-17T02:58:59.518Z,4.68
2023-01-17T03:01:26.572Z,4.78
2023-01-17T03:03:53.425Z,4.55
2023-01-17T03:06:20.104Z,5.72
2023-01-17T03:08:46.820Z,5.30
2023-01-17T03:11:13.546Z,5.20
2023-01-17T03:13:41.280Z,4.93
2023-01-17T03:16:08.311Z,4.60
2023-01-17T03:18:35.069Z,5.20
2023-01-17T03:21:01.811Z,4.95
2023-01-17T03:23:28.663Z,4.72
2023-01-17T03:25:55.413Z,4.97
2023-01-17T03:28:22.127Z,5.50
2023-01-17T03:30:48.861Z,4.60
2023-01-17T03:33:15.647Z,4.55
2023-01-17T03:35:42.307Z,4.65
2023-01-17T03:38:08.995Z,4.68
2023-01-17T03:40:35.808Z,4.65
2023-01-17T03:43:02.491Z,4.78
2023-01-17T03:45:29.280Z,4.65
2023-01-17T03:47:57.840Z,4.70
2023-01-17T03:50:24.579Z,4.60
2023-01-17T03:52:51.367Z,4.72
2023-01-17T03:55:18.070Z,4.70
2023-01-17T03:57:44.764Z,4.47
2023-01-17T04:00:11.496Z,4.60
2023-01-17T04:02:38.246Z,4.80
2023-01-17T04:05:05.268Z,4.20
2023-01-17T04:07:31.997Z,4.40
2023-01-17T04:09:58.676Z,4.57
2023-01-17T04:12:25.396Z,4.65
2023-01-17T04:14:52.143Z,4.65
2023-01-17T04:17:18.845Z,4.32
2023-01-17T04:19:45.534Z,4.53
2023-01-17T04:22:12.247Z,4.55
2023-01-17T04:24:38.974Z,4.35
2023-01-17T04:27:05.629Z,5.05
2023-01-17T04:29:32.313Z,4.47
2023-01-17T04:31:59.042Z,4.38
2023-01-17T04:34:26.294Z,4.47
2023-01-17T04:36:53.080Z,3.90
2023-01-17T04:39:19.835Z,4.50
2023-01-17T04:41:46.509Z,4.22
2023-01-17T04:44:13.238Z,4.10
2023-01-17T04:46:39.934Z,4.53
2023-01-17T04:49:06.617Z,4.50
2023-01-17T04:51:33.339Z,4.68
2023-01-17T04:54:00.093Z,4.13
2023-01-17T04:56:26.831Z,4.03
2023-01-17T04:58:53.527Z,3.67
2023-01-17T05:01:20.431Z,3.42
2023-01-17T05:03:47.210Z,3.20
2023-01-17T05:06:13.912Z,3.40
2023-01-17T05:08:40.618Z,3.78
2023-01-17T05:11:07.425Z,3.28
2023-01-17T05:13:34.126Z,2.97
2023-01-17T05:16:00.867Z,3.35
2023-01-17T05:18:27.679Z,3.15
2023-01-17T05:20:54.437Z,3.70
2023-01-17T05:23:21.171Z,3.45
2023-01-17T05:25:47.863Z,3.40
2023-01-17T05:28:14.619Z,3.40
2023-01-17T05:30:41.454Z,3.30
2023-01-17T05:33:10.213Z,3.80
2023-01-17T05:35:37.109Z,4.25
2023-01-17T05:38:03.860Z,4.55
2023-01-17T05:40:30.969Z,4.75
2023-01-17T05:42:57.776Z,4.60
2023-01-17T05:45:24.469Z,4.15
2023-01-17T05:47:51.153Z,4.45
2023-01-17T05:50:17.857Z,4.28
2023-01-17T05:52:44.513Z,4.07
2023-01-17T05:55:11.257Z,3.95
2023-01-17T05:57:38.010Z,4.32
2023-01-17T06:00:04.910Z,3.92
2023-01-17T06:02:31.771Z,4.18
2023-01-17T06:04:58.461Z,4.00
2023-01-17T06:07:25.158Z,5.07
2023-01-17T06:09:51.887Z,4.75
2023-01-17T06:12:18.557Z,4.75
2023-01-17T06:14:45.295Z,4.55
2023-01-17T06:17:11.991Z,4.00
2023-01-17T06:19:38.685Z,3.92
2023-01-17T06:22:05.383Z,3.50
2023-01-17T06:24:32.102Z,3.42
2023-01-17T06:26:58.779Z,3.70
2023-01-17T06:29:25.469Z,3.58
2023-01-17T06:31:52.148Z,4.03
2023-01-17T06:34:18.941Z,4.50
2023-01-17T06:36:45.640Z,4.72
2023-01-17T06:39:14.870Z,5.40
2023-01-17T06:41:41.828Z,4.88
2023-01-17T06:44:08.549Z,5.72
2023-01-17T06:46:35.294Z,5.40
2023-01-17T06:49:02.095Z,5.28
2023-01-17T06:51:28.797Z,5.40
2023-01-17T06:53:55.598Z,5.68
2023-01-17T06:56:22.399Z,5.40
2023-01-17T06:58:49.119Z,5.10
2023-01-17T07:01:15.904Z,5.45
2023-01-17T07:03:42.827Z,6.20
2023-01-17T07:06:09.607Z,5.15
2023-01-17T07:08:36.365Z,5.47
2023-01-17T07:11:03.131Z,5.25
2023-01-17T07:13:30.630Z,4.85
2023-01-17T07:15:57.399Z,4.40
2023-01-17T07:18:24.239Z,4.43
2023-01-17T07:20:51.000Z,4.32
2023-01-17T07:23:17.720Z,4.80
2023-01-17T07:25:44.369Z,4.72
2023-01-17T07:28:11.065Z,5.30
2023-01-17T07:30:37.825Z,4.95
2023-01-17T07:33:04.631Z,5.22
2023-01-17T07:35:31.371Z,6.25
2023-01-17T07:37:58.072Z,6.07
2023-01-17T07:40:25.427Z,5.40
2023-01-17T07:42:52.216Z,5.35
2023-01-17T07:45:19.905Z,5.72
2023-01-17T07:47:47.153Z,5.47
2023-01-17T07:50:13.951Z,5.30
2023-01-17T07:52:40.628Z,5.80
2023-01-17T07:55:07.379Z,6.28
2023-01-17T07:57:34.149Z,5.85
2023-01-17T08:00:00.908Z,7.00
2023-01-17T08:02:27.704Z,5.43
2023-01-17T08:04:54.559Z,6.22
2023-01-17T08:07:21.287Z,5.20
2023-01-17T08:09:50.161Z,6.10
2023-01-17T08:12:16.918Z,5.55
2023-01-17T08:14:43.775Z,6.55
2023-01-17T08:17:10.445Z,6.68
2023-01-17T08:19:37.168Z,8.13
2023-01-17T08:22:03.942Z,6.22
2023-01-17T08:24:30.689Z,6.32
2023-01-17T08:26:57.400Z,6.75
2023-01-17T08:29:24.150Z,6.50
2023-01-17T08:31:50.881Z,6.25
2023-01-17T08:34:17.693Z,7.13
2023-01-17T08:36:44.961Z,6.57
2023-01-17T08:39:14.484Z,5.72
2023-01-17T08:41:41.242Z,6.22
2023-01-17T08:44:08.049Z,6.65
2023-01-17T08:46:34.795Z,6.38
2023-01-17T08:49:02.837Z,6.13
2023-01-17T08:51:29.915Z,6.55
2023-01-17T08:53:56.671Z,6.63
2023-01-17T08:56:27.405Z,6.18
2023-01-17T08:58:54.135Z,6.45
2023-01-17T09:01:21.016Z,6.70
2023-01-17T09:03:47.790Z,5.70
2023-01-17T09:06:14.496Z,9.52
2023-01-17T09:08:41.224Z,6.72
2023-01-17T09:11:08.046Z,6.45
2023-01-17T09:13:34.732Z,9.13
2023-01-17T09:16:01.548Z,6.70
2023-01-17T09:18:28.345Z,6.32
2023-01-17T09:20:55.297Z,6.30
2023-01-17T09:23:22.066Z,5.63
2023-01-17T09:25:48.780Z,5.10
2023-01-17T09:28:15.509Z,5.53
2023-01-17T09:30:42.326Z,5.90
2023-01-17T09:33:09.109Z,4.88
2023-01-17T09:35:35.958Z,6.03
2023-01-17T09:38:02.695Z,5.65
2023-01-17T09:40:29.425Z,6.10
2023-01-17T09:42:58.099Z,6.32
2023-01-17T09:45:25.591Z,5.78
2023-01-17T09:47:52.566Z,6.20
2023-01-17T09:50:19.283Z,6.45
2023-01-17T09:52:46.099Z,6.00
2023-01-17T09:55:12.820Z,5.95
2023-01-17T09:57:39.678Z,6.03
2023-01-17T10:00:06.585Z,5.90
2023-01-17T10:02:33.375Z,5.95
2023-01-17T10:05:00.272Z,6.25
2023-01-17T10:07:26.981Z,6.60
2023-01-17T10:09:53.693Z,4.80
2023-01-17T10:12:20.434Z,5.20
2023-01-17T10:14:47.149Z,4.47
2023-01-17T10:17:16.179Z,4.97
2023-01-17T10:19:42.921Z,4.70
2023-01-17T10:22:10.269Z,4.60
2023-01-17T10:24:37.007Z,4.30
2023-01-17T10:27:03.697Z,4.25
2023-01-17T10:29:30.507Z,4.90
2023-01-17T10:31:57.309Z,4.78
2023-01-17T10:34:24.053Z,6.03
2023-01-17T10:36:50.787Z,5.80
2023-01-17T10:39:17.511Z,5.40
2023-01-17T10:41:44.225Z,6.03
2023-01-17T10:44:10.925Z,5.78
2023-01-17T10:46:37.691Z,5.78
2023-01-17T10:49:04.455Z,6.13
2023-01-17T10:51:31.168Z,5.97
2023-01-17T10:53:58.437Z,6.00
2023-01-17T10:56:26.225Z,6.82
2023-01-17T10:58:52.976Z,6.45
2023-01-17T11:01:19.825Z,7.72
2023-01-17T11:03:46.727Z,9.18
2023-01-17T11:06:13.961Z,8.50
2023-01-17T11:08:40.686Z,7.53
2023-01-17T11:11:07.392Z,7.90
2023-01-17T11:13:37.257Z,7.90
2023-01-17T11:16:05.954Z,7.75
2023-01-17T11:18:32.761Z,7.72
2023-01-17T11:21:00.578Z,8.45
2023-01-17T11:23:27.627Z,8.95
2023-01-17T11:25:55.158Z,10.73
2023-01-17T11:28:21.922Z,10.77
2023-01-17T11:30:48.710Z,9.88
2023-01-17T11:33:15.421Z,9.80
2023-01-17T11:35:42.147Z,9.98
2023-01-17T11:38:08.910Z,10.88
2023-01-17T11:40:35.595Z,11.07
2023-01-17T11:43:02.406Z,11.82
2023-01-17T11:45:29.138Z,10.65
2023-01-17T11:47:55.973Z,9.93
2023-01-17T11:50:22.695Z,9.38
2023-01-17T11:52:49.352Z,9.63
2023-01-17T11:55:16.108Z,9.88
2023-01-17T11:57:42.831Z,9.65
2023-01-17T12:00:09.529Z,9.90
2023-01-17T12:02:38.617Z,9.00
2023-01-17T12:05:05.384Z,9.45
2023-01-17T12:07:32.137Z,9.73
2023-01-17T12:09:58.826Z,10.27
2023-01-17T12:12:44.443Z,10.30
2023-01-17T12:15:11.180Z,10.85
2023-01-17T12:17:37.887Z,10.48
2023-01-17T12:20:11.633Z,9.70
2023-01-17T12:22:38.395Z,9.75
2023-01-17T12:25:05.117Z,9.43
2023-01-17T12:27:31.846Z,9.80
2023-01-17T12:29:58.894Z,10.05
2023-01-17T12:32:25.692Z,9.25
2023-01-17T12:34:52.571Z,9.25
2023-01-17T12:37:19.336Z,7.93
2023-01-17T12:39:46.068Z,8.65
2023-01-17T12:42:13.554Z,8.68
2023-01-17T12:44:40.233Z,8.35
2023-01-17T12:47:07.382Z,7.97
2023-01-17T12:49:34.081Z,8.45
2023-01-17T12:52:00.817Z,8.13
2023-01-17T12:54:27.670Z,6.55
2023-01-17T12:56:54.399Z,7.32
2023-01-17T12:59:21.144Z,8.00
2023-01-17T13:01:57.366Z,9.23
2023-01-17T13:04:24.345Z,8.88
2023-01-17T13:06:51.083Z,8.77
2023-01-17T13:09:17.896Z,8.60
2023-01-17T13:11:46.623Z,8.57
2023-01-17T13:14:13.363Z,8.57
2023-01-17T13:16:42.029Z,8.75
2023-01-17T13:19:09.143Z,10.38
2023-01-17T13:21:35.920Z,8.55
2023-01-17T13:24:02.664Z,8.50
2023-01-17T13:26:29.524Z,7.68
2023-01-17T13:28:56.265Z,8.60
2023-01-17T13:31:23.020Z,8.52
2023-01-17T13:33:49.866Z,8.65
2023-01-17T13:36:16.808Z,8.38
2023-01-17T13:38:43.550Z,7.68
2023-01-17T13:41:10.287Z,9.68
2023-01-17T13:43:36.992Z,8.95
2023-01-17T13:46:03.897Z,8.77
2023-01-17T13:48:30.841Z,8.70
2023-01-17T13:50:57.545Z,9.50
2023-01-17T13:53:24.289Z,9.68
2023-01-17T13:55:51.026Z,9.65
2023-01-17T13:58:18.425Z,9.73
2023-01-17T14:00:45.186Z,10.30
2023-01-17T14:03:12.090Z,10.18
2023-01-17T14:05:38.843Z,9.52
2023-01-17T14:08:05.594Z,10.18
2023-01-17T14:10:32.301Z,10.02
2023-01-17T14:12:59.070Z,10.38
2023-01-17T14:15:29.894Z,11.07
2023-01-17T14:17:56.707Z,9.50
2023-01-17T14:20:23.488Z,10.45
2023-01-17T14:22:50.230Z,10.43
2023-01-17T14:25:19.766Z,10.38
2023-01-17T14:27:46.513Z,11.65
2023-01-17T14:30:14.174Z,11.25
2023-01-17T14:32:40.937Z,11.43
2023-01-17T14:35:09.226Z,11.55
2023-01-17T14:37:36.062Z,11.45
2023-01-17T14:40:02.826Z,12.63
2023-01-17T14:42:29.715Z,12.20
2023-01-17T14:44:56.410Z,13.02
2023-01-17T14:47:23.158Z,12.88
2023-01-17T14:49:49.937Z,12.43
2023-01-17T14:52:16.730Z,12.05
2023-01-17T14:54:43.451Z,12.52
2023-01-17T14:57:10.150Z,11.95
2023-01-17T14:59:36.843Z,12.07
2023-01-17T15:02:07.998Z,11.75
2023-01-17T15:04:39.509Z,12.52
2023-01-17T15:07:06.820Z,13.25
2023-01-17T15:09:33.505Z,13.20
2023-01-17T15:12:00.183Z,13.82
2023-01-17T15:14:27.776Z,14.82
2023-01-17T15:16:54.667Z,14.30
2023-01-17T15:19:21.873Z,15.35
2023-01-17T15:21:50.422Z,15.77
2023-01-17T15:24:17.405Z,15.85
2023-01-17T15:26:44.170Z,15.73
2023-01-17T15:29:10.918Z,16.38
2023-01-17T15:31:37.948Z,17.95
2023-01-17T15:34:04.651Z,18.30
2023-01-17T15:36:34.438Z,18.92
2023-01-17T15:39:01.579Z,18.52
2023-01-17T15:41:28.308Z,22.88
2023-01-17T15:43:57.706Z,27.88
2023-01-17T15:46:25.741Z,28.33
2023-01-17T15:48:52.597Z,23.75
2023-01-17T15:51:19.381Z,24.40
2023-01-17T15:53:46.162Z,23.83
2023-01-17T15:56:12.945Z,21.30
2023-01-17T15:58:39.706Z,19.98
2023-01-17T16:01:06.510Z,18.08
2023-01-17T16:03:33.324Z,18.00
2023-01-17T16:06:00.350Z,18.20
2023-01-17T16:08:27.152Z,17.63
2023-01-17T16:10:54.012Z,15.98
2023-01-17T16:13:21.779Z,15.35
2023-01-17T16:15:48.724Z,16.20
2023-01-17T16:18:15.521Z,15.45
2023-01-17T16:20:42.251Z,17.02
2023-01-17T16:23:09.016Z,15.18
2023-01-17T16:25:35.722Z,14.27
2023-01-17T16:28:02.489Z,14.60
2023-01-17T16:30:29.258Z,15.02
2023-01-17T16:32:56.949Z,13.73
2023-01-17T16:35:23.720Z,15.27
2023-01-17T16:37:51.052Z,15.05
2023-01-17T16:40:18.069Z,14.65
2023-01-17T16:42:44.810Z,14.95
2023-01-17T16:45:11.504Z,16.67
2023-01-17T16:47:38.260Z,17.52
2023-01-17T16:50:04.980Z,16.75
2023-01-17T16:52:31.672Z,16.27
2023-01-17T16:54:58.770Z,17.50
2023-01-17T16:57:25.531Z,17.17
2023-01-17T16:59:53.237Z,16.52
2023-01-17T17:02:20.090Z,15.43
2023-01-17T17:04:46.888Z,16.02
2023-01-17T17:07:13.556Z,15.88
2023-01-17T17:09:40.274Z,15.95
2023-01-17T17:12:06.973Z,16.10
2023-01-17T17:14:33.691Z,16.13
2023-01-17T17:17:03.151Z,15.57
2023-01-17T17:19:30.001Z,17.70
2023-01-17T17:21:56.756Z,22.50
2023-01-17T17:24:23.477Z,23.15
2023-01-17T17:26:50.171Z,23.58
2023-01-17T17:29:17.026Z,19.05
2023-01-17T17:31:43.881Z,17.30
2023-01-17T17:34:10.626Z,16.20
2023-01-17T17:36:37.368Z,15.68
2023-01-17T17:39:04.422Z,16.00
2023-01-17T17:41:31.223Z,15.63
2023-01-17T17:43:57.955Z,15.73
2023-01-17T17:46:24.770Z,16.70
2023-01-17T17:48:51.573Z,15.57
2023-01-17T17:51:18.274Z,16.15
2023-01-17T17:53:45.002Z,15.82
2023-01-17T17:56:11.746Z,15.90
2023-01-17T17:58:39.447Z,15.52
2023-01-17T18:01:06.263Z,15.90
2023-01-17T18:03:33.051Z,15.60
2023-01-17T18:05:59.816Z,15.65
2023-01-17T18:08:26.641Z,14.73
2023-01-17T18:10:53.333Z,16.00
2023-01-17T18:13:20.070Z,14.90
2023-01-17T18:15:46.782Z,14.68
2023-01-17T18:18:13.488Z,15.10
2023-01-17T18:20:40.240Z,14.85
2023-01-17T18:23:06.985Z,15.98
2023-01-17T18:25:35.622Z,14.43
2023-01-17T18:28:03.071Z,14.82
2023-01-17T18:30:33.013Z,15.75
2023-01-17T18:32:59.725Z,15.65
2023-01-17T18:35:26.440Z,15.32
2023-01-17T18:37:53.384Z,16.15
2023-01-17T18:40:20.282Z,15.30
2023-01-17T18:42:46.990Z,15.82
2023-01-17T18:45:13.705Z,15.45
2023-01-17T18:47:40.423Z,21.38
2023-01-17T18:50:07.229Z,18.15
2023-01-17T18:52:35.147Z,17.67
2023-01-17T18:55:01.928Z,18.42
2023-01-17T18:57:28.708Z,15.95
2023-01-17T18:59:55.549Z,15.55
2023-01-17T19:02:22.282Z,15.95
2023-01-17T19:04:48.968Z,15.90
2023-01-17T19:07:15.800Z,16.02
2023-01-17T19:09:44.213Z,15.50
2023-01-17T19:12:11.004Z,15.73
2023-01-17T19:14:37.793Z,15.15
2023-01-17T19:17:04.618Z,15.55
2023-01-17T19:19:31.339Z,16.98
2023-01-17T19:21:58.072Z,15.65
2023-01-17T19:24:24.851Z,16.60
2023-01-17T19:26:53.323Z,17.38
2023-01-17T19:29:20.160Z,16.58
2023-01-17T19:31:46.936Z,18.52
2023-01-17T19:34:14.695Z,17.85
2023-01-17T19:36:41.529Z,17.25
2023-01-17T19:39:09.526Z,17.23
2023-01-17T19:41:36.321Z,19.95
2023-01-17T19:44:03.302Z,22.95
2023-01-17T19:46:30.048Z,22.00
2023-01-17T19:48:56.785Z,19.08
2023-01-17T19:51:23.512Z,19.33
2023-01-17T19:53:50.267Z,20.27
2023-01-17T19:56:17.004Z,21.05
2023-01-17T19:58:43.735Z,18.67
2023-01-17T20:01:10.519Z,20.95
2023-01-17T20:03:37.746Z,39.35
2023-01-17T20:06:04.463Z,31.83
2023-01-17T20:08:31.211Z,54.33
2023-01-17T20:10:57.982Z,31.13
2023-01-17T20:13:25.279Z,27.88
2023-01-17T20:15:51.959Z,26.77
2023-01-17T20:18:18.660Z,25.05
2023-01-17T20:20:56.584Z,24.02
2023-01-17T20:23:23.933Z,30.52
2023-01-17T20:25:50.653Z,36.58
2023-01-17T20:28:17.373Z,30.20
2023-01-17T20:30:45.652Z,23.27
2023-01-17T20:33:14.980Z,21.38
2023-01-17T20:35:41.688Z,21.17
2023-01-17T20:38:10.527Z,20.33
2023-01-17T20:40:37.256Z,21.77
2023-01-17T20:43:04.096Z,26.02
2023-01-17T20:45:30.914Z,30.80
2023-01-17T20:47:57.976Z,28.70
2023-01-17T20:50:24.790Z,26.42
2023-01-17T20:52:51.526Z,23.55
2023-01-17T20:55:18.241Z,23.80
2023-01-17T20:57:44.928Z,30.52
2023-01-17T21:00:12.404Z,25.80
2023-01-17T21:02:39.206Z,23.02
2023-01-17T21:05:06.022Z,23.33
2023-01-17T21:07:32.745Z,23.00
2023-01-17T21:09:59.491Z,25.45
2023-01-17T21:12:26.197Z,34.10
2023-01-17T21:14:53.704Z,35.17
2023-01-17T21:17:20.573Z,34.97
2023-01-17T21:19:47.300Z,31.73
2023-01-17T21:22:16.696Z,30.50
2023-01-17T21:24:43.507Z,27.35
2023-01-17T21:27:12.352Z,26.50
2023-01-17T21:29:39.065Z,23.70
2023-01-17T21:32:05.869Z,20.27
2023-01-17T21:34:34.638Z,21.75
2023-01-17T21:37:01.410Z,26.63
2023-01-17T21:39:29.264Z,22.80
2023-01-17T21:41:56.016Z,24.45
2023-01-17T21:44:22.977Z,27.40
2023-01-17T21:46:54.175Z,29.70
2023-01-17T21:49:21.987Z,25.27
2023-01-17T21:51:54.598Z,36.67
2023-01-17T21:54:41.288Z,47.80
2023-01-17T21:57:26.456Z,32.90
2023-01-17T21:59:53.207Z,27.42
2023-01-17T22:02:19.929Z,24.05
2023-01-17T22:04:46.702Z,21.38
2023-01-17T22:07:13.454Z,21.90
2023-01-17T22:09:40.546Z,20.65
2023-01-17T22:12:07.319Z,21.75
2023-01-17T22:14:34.128Z,22.70
2023-01-17T22:17:00.877Z,23.77
2023-01-17T22:19:27.632Z,21.48
2023-01-17T22:21:54.328Z,20.20
2023-01-17T22:24:22.244Z,20.67
2023-01-17T22:26:48.964Z,20.45
2023-01-17T22:29:19.052Z,21.60
2023-01-17T22:31:45.782Z,21.33
2023-01-17T22:34:13.950Z,20.98
2023-01-17T22:36:40.706Z,21.27
2023-01-17T22:39:07.511Z,21.52
2023-01-17T22:41:35.248Z,29.17
2023-01-17T22:44:08.543Z,30.35
2023-01-17T22:46:37.209Z,28.58
2023-01-17T22:49:04.115Z,24.35
2023-01-17T22:51:30.896Z,27.15
2023-01-17T22:53:57.673Z,25.77
2023-01-17T22:56:24.501Z,22.20
2023-01-17T22:58:51.226Z,26.25
2023-01-17T23:01:18.003Z,21.30
2023-01-17T23:03:44.784Z,19.73
2023-01-17T23:06:11.582Z,19.50
2023-01-17T23:08:38.395Z,21.08
2023-01-17T23:11:23.738Z,17.92
2023-01-17T23:13:50.501Z,19.67
2023-01-17T23:16:35.692Z,19.15
2023-01-17T23:19:21.274Z,18.58
2023-01-17T23:22:06.687Z,18.90
2023-01-17T23:24:33.408Z,15.63
2023-01-17T23:27:18.648Z,16.30
2023-01-17T23:29:45.524Z,15.97
2023-01-17T23:32:12.471Z,15.88
2023-01-17T23:34:39.169Z,15.07
2023-01-17T23:37:05.882Z,16.02
2023-01-17T23:39:32.568Z,16.05
2023-01-17T23:42:17.864Z,14.73
2023-01-17T23:44:44.585Z,14.13
2023-01-17T23:47:11.300Z,13.20
2023-01-17T23:49:37.995Z,13.18
2023-01-17T23:52:04.697Z,12.55
2023-01-17T23:54:32.104Z,12.50
2023-01-17T23:56:58.816Z,11.52
2023-01-17T23:59:25.483Z,11.65
